Oriximina, Brazil
Current Conditions -  °F | °C
As of 3:00 PM on Saturday 20 Dec 2014 (Local Time) from SBSN Reporting Station
Clear Clear  
Wind Chill: 88°   Ceiling: Unl
Heat Index: 96°   Visibility: 6mi
Dew Point: 73°   Wind: 2mph
Humidity: 62%   Direction: 110°ESE
Pressure: 29.77"   Gusts: NA
Location:  1.76°S, 55.87°W
Report Text: SBSN 201900Z 11002KT CAVOK 31/23 Q1008
Loading
Personal Weather Stations






























Interactive Weather Map New forecast layout! Learn more

10-Day Weather Forecast

Advertisements
Track Severe Weather on mobile